createdAt,value
2023-01-09T00:00:16.817Z,41.43
2023-01-09T00:02:46.055Z,40.93
2023-01-09T00:05:16.492Z,43.47
2023-01-09T00:07:45.885Z,50.33
2023-01-09T00:10:15.708Z,43.13
2023-01-09T00:12:44.557Z,45.80
2023-01-09T00:15:15.165Z,46.70
2023-01-09T00:17:44.015Z,45.00
2023-01-09T00:20:13.222Z,50.80
2023-01-09T00:22:42.076Z,45.00
2023-01-09T00:25:11.411Z,47.50
2023-01-09T00:27:40.295Z,43.07
2023-01-09T00:30:10.586Z,46.83
2023-01-09T00:32:41.732Z,41.90
2023-01-09T00:35:16.667Z,44.07
2023-01-09T00:37:45.675Z,43.60
2023-01-09T00:40:17.019Z,48.90
2023-01-09T00:42:49.104Z,39.40
2023-01-09T00:45:22.633Z,44.17
2023-01-09T00:47:54.177Z,45.23
2023-01-09T00:50:25.337Z,49.70
2023-01-09T00:52:56.419Z,43.83
2023-01-09T00:55:25.602Z,55.93
2023-01-09T00:57:54.442Z,53.27
2023-01-09T01:00:23.324Z,47.27
2023-01-09T01:02:53.506Z,52.83
2023-01-09T01:05:40.079Z,53.40
2023-01-09T01:08:13.220Z,47.27
2023-01-09T01:10:42.288Z,47.90
2023-01-09T01:13:11.991Z,50.37
2023-01-09T01:15:41.583Z,49.23
2023-01-09T01:18:12.277Z,53.93
2023-01-09T01:20:42.383Z,55.00
2023-01-09T01:23:11.337Z,45.83
2023-01-09T01:25:40.320Z,56.43
2023-01-09T01:28:09.647Z,55.60
2023-01-09T01:30:40.195Z,50.90
2023-01-09T01:33:11.461Z,46.90
2023-01-09T01:35:40.589Z,48.27
2023-01-09T01:38:09.393Z,58.07
2023-01-09T01:40:38.539Z,52.10
2023-01-09T01:43:07.264Z,53.37
2023-01-09T01:45:36.302Z,50.93
2023-01-09T01:48:08.630Z,51.83
2023-01-09T01:50:42.278Z,50.37
2023-01-09T01:53:16.775Z,49.20
2023-01-09T01:55:55.399Z,52.60
2023-01-09T01:58:24.235Z,49.23
2023-01-09T02:00:53.259Z,49.77
2023-01-09T02:03:26.879Z,51.77
2023-01-09T02:05:57.326Z,52.63
2023-01-09T02:08:26.165Z,46.33
2023-01-09T02:10:56.289Z,58.70
2023-01-09T02:13:26.513Z,52.57
2023-01-09T02:16:11.942Z,47.40
2023-01-09T02:18:48.374Z,49.07
2023-01-09T02:21:27.652Z,48.60
2023-01-09T02:24:18.015Z,48.13
2023-01-09T02:27:14.562Z,48.27
2023-01-09T02:30:21.454Z,50.63
2023-01-09T02:33:01.290Z,50.50
2023-01-09T02:35:44.953Z,50.17
2023-01-09T02:38:24.280Z,51.50
2023-01-09T02:41:03.559Z,53.30
2023-01-09T02:43:33.288Z,55.77
2023-01-09T02:46:02.262Z,55.30
2023-01-09T02:48:33.252Z,57.63
2023-01-09T02:51:11.116Z,52.80
2023-01-09T02:54:01.083Z,60.67
2023-01-09T02:56:59.031Z,53.30
2023-01-09T02:59:34.554Z,51.33
2023-01-09T03:02:21.904Z,48.30
2023-01-09T03:05:00.795Z,46.57
2023-01-09T03:07:36.148Z,54.17
2023-01-09T03:10:14.704Z,53.57
2023-01-09T03:12:45.027Z,49.23
2023-01-09T03:15:16.100Z,50.20
2023-01-09T03:17:48.782Z,58.63
2023-01-09T03:20:23.637Z,60.97
2023-01-09T03:22:57.679Z,53.63
2023-01-09T03:25:28.295Z,58.30
2023-01-09T03:28:00.160Z,55.23
2023-01-09T03:30:31.279Z,57.63
2023-01-09T03:33:00.004Z,55.43
2023-01-09T03:35:30.624Z,56.37
2023-01-09T03:37:59.646Z,51.50
2023-01-09T03:40:28.401Z,50.07
2023-01-09T03:42:57.089Z,51.97
2023-01-09T03:45:25.818Z,50.60
2023-01-09T03:47:54.622Z,47.60
2023-01-09T03:50:23.345Z,55.77
2023-01-09T03:52:53.462Z,48.20
2023-01-09T03:55:22.216Z,46.80
2023-01-09T03:57:52.918Z,49.57
2023-01-09T04:00:22.359Z,53.70
2023-01-09T04:02:51.099Z,51.37
2023-01-09T04:05:19.898Z,58.60
2023-01-09T04:07:48.662Z,54.30
2023-01-09T04:10:19.666Z,57.73
2023-01-09T04:12:48.329Z,62.83
2023-01-09T04:15:17.148Z,51.67
2023-01-09T04:17:45.868Z,50.03
2023-01-09T04:20:14.725Z,48.73
2023-01-09T04:22:43.448Z,49.40
2023-01-09T04:25:12.792Z,45.13
2023-01-09T04:27:43.085Z,45.80
2023-01-09T04:30:13.003Z,53.87
2023-01-09T04:32:41.729Z,47.10
2023-01-09T04:35:11.574Z,48.67
2023-01-09T04:37:40.777Z,48.67
2023-01-09T04:40:12.512Z,42.70
2023-01-09T04:42:43.297Z,44.80
2023-01-09T04:45:15.572Z,45.70
2023-01-09T04:47:44.554Z,48.17
2023-01-09T04:50:14.281Z,41.07
2023-01-09T04:52:42.945Z,49.63
2023-01-09T04:55:11.988Z,45.40
2023-01-09T04:57:40.720Z,40.03
2023-01-09T05:00:12.567Z,40.00
2023-01-09T05:02:42.117Z,40.90
2023-01-09T05:05:12.100Z,43.00
2023-01-09T05:07:41.369Z,40.50
2023-01-09T05:10:11.702Z,43.67
2023-01-09T05:12:40.515Z,43.63
2023-01-09T05:15:12.111Z,39.90
2023-01-09T05:17:40.825Z,39.77
2023-01-09T05:20:10.326Z,44.57
2023-01-09T05:22:39.106Z,36.50
2023-01-09T05:25:08.672Z,39.10
2023-01-09T05:27:37.396Z,38.43
2023-01-09T05:30:06.789Z,46.27
2023-01-09T05:32:36.973Z,38.50
2023-01-09T05:35:06.190Z,37.90
2023-01-09T05:37:34.920Z,38.93
2023-01-09T05:40:03.792Z,40.87
2023-01-09T05:42:32.569Z,41.47
2023-01-09T05:45:01.391Z,44.57
2023-01-09T05:47:30.276Z,40.40
2023-01-09T05:50:00.530Z,44.07
2023-01-09T05:52:29.401Z,41.57
2023-01-09T05:54:58.102Z,37.73
2023-01-09T05:57:27.524Z,40.60
2023-01-09T05:59:56.272Z,41.17
2023-01-09T06:02:25.167Z,38.57
2023-01-09T06:04:53.941Z,41.70
2023-01-09T06:07:24.196Z,40.50
2023-01-09T06:09:52.956Z,37.70
2023-01-09T06:12:21.732Z,39.97
2023-01-09T06:14:50.535Z,32.90
2023-01-09T06:17:19.369Z,37.37
2023-01-09T06:19:48.114Z,33.03
2023-01-09T06:22:16.916Z,36.37
2023-01-09T06:24:47.211Z,39.57
2023-01-09T06:27:15.931Z,33.20
2023-01-09T06:29:44.726Z,34.33
2023-01-09T06:32:13.477Z,34.37
2023-01-09T06:34:42.224Z,33.93
2023-01-09T06:37:10.987Z,36.47
2023-01-09T06:39:39.789Z,39.10
2023-01-09T06:42:10.011Z,37.43
2023-01-09T06:44:38.844Z,37.40
2023-01-09T06:47:07.715Z,40.00
2023-01-09T06:49:36.636Z,33.27
2023-01-09T06:52:07.899Z,36.30
2023-01-09T06:54:37.207Z,36.63
2023-01-09T06:57:06.025Z,35.80
2023-01-09T06:59:36.231Z,38.97
2023-01-09T07:02:05.129Z,35.60
2023-01-09T07:04:33.982Z,43.03
2023-01-09T07:07:02.780Z,35.70
2023-01-09T07:09:31.545Z,36.77
2023-01-09T07:12:06.694Z,32.73
2023-01-09T07:14:37.006Z,33.40
2023-01-09T07:17:05.773Z,31.57
2023-01-09T07:19:34.563Z,31.77
2023-01-09T07:22:03.222Z,34.73
2023-01-09T07:24:32.053Z,32.67
2023-01-09T07:27:00.733Z,34.70
2023-01-09T07:29:29.494Z,37.90
2023-01-09T07:31:59.773Z,33.37
2023-01-09T07:34:28.501Z,34.50
2023-01-09T07:36:57.302Z,35.67
2023-01-09T07:39:26.059Z,35.77
2023-01-09T07:41:54.854Z,36.07
2023-01-09T07:44:23.595Z,34.67
2023-01-09T07:46:52.351Z,34.57
2023-01-09T07:49:22.682Z,35.97
2023-01-09T07:51:52.143Z,36.40
2023-01-09T07:54:21.611Z,36.53
2023-01-09T07:56:52.586Z,35.67
2023-01-09T07:59:21.368Z,34.60
2023-01-09T08:01:50.488Z,33.13
2023-01-09T08:04:19.866Z,35.10
2023-01-09T08:06:51.042Z,33.43
2023-01-09T08:09:20.232Z,37.93
2023-01-09T08:11:51.600Z,37.17
2023-01-09T08:14:20.938Z,38.67
2023-01-09T08:16:50.007Z,36.07
2023-01-09T08:19:19.736Z,36.27
2023-01-09T08:21:51.690Z,34.90
2023-01-09T08:24:21.009Z,35.40
2023-01-09T08:26:50.054Z,36.30
2023-01-09T08:29:19.236Z,34.20
2023-01-09T08:31:49.887Z,39.23
2023-01-09T08:34:18.847Z,38.37
2023-01-09T08:36:47.534Z,34.87
2023-01-09T08:39:17.708Z,33.77
2023-01-09T08:42:03.995Z,38.80
2023-01-09T08:44:50.350Z,37.20
2023-01-09T08:47:21.861Z,35.63
2023-01-09T08:49:53.294Z,38.17
2023-01-09T08:52:22.149Z,33.03
2023-01-09T08:54:52.748Z,34.40
2023-01-09T08:57:21.665Z,34.60
2023-01-09T08:59:51.497Z,33.30
2023-01-09T09:02:20.530Z,33.83
2023-01-09T09:04:53.377Z,37.23
2023-01-09T09:07:26.845Z,34.90
2023-01-09T09:09:57.786Z,35.00
2023-01-09T09:12:27.721Z,36.03
2023-01-09T09:15:16.931Z,35.07
2023-01-09T09:17:46.612Z,29.13
2023-01-09T09:20:15.747Z,34.90
2023-01-09T09:22:44.540Z,35.63
2023-01-09T09:25:14.869Z,39.20
2023-01-09T09:27:43.761Z,32.17
2023-01-09T09:30:17.647Z,34.77
2023-01-09T09:32:46.849Z,37.67
2023-01-09T09:35:17.969Z,36.43
2023-01-09T09:37:55.781Z,35.10
2023-01-09T09:40:38.781Z,34.60
2023-01-09T09:43:43.479Z,35.50
2023-01-09T09:46:20.518Z,35.50
2023-01-09T09:48:54.145Z,30.80
2023-01-09T09:51:53.761Z,30.23
2023-01-09T09:54:28.910Z,30.70
2023-01-09T09:57:02.101Z,31.47
2023-01-09T09:59:34.940Z,35.03
2023-01-09T10:02:14.135Z,28.17
2023-01-09T10:04:50.499Z,30.97
2023-01-09T10:07:24.360Z,30.43
2023-01-09T10:09:55.647Z,32.37
2023-01-09T10:12:30.361Z,29.17
2023-01-09T10:15:00.503Z,32.63
2023-01-09T10:18:00.825Z,29.70
2023-01-09T10:20:49.686Z,30.00
2023-01-09T10:23:51.999Z,28.97
2023-01-09T10:26:26.863Z,29.67
2023-01-09T10:29:14.308Z,30.23
2023-01-09T10:31:53.037Z,28.40
2023-01-09T10:34:39.562Z,29.17
2023-01-09T10:37:14.411Z,25.63
2023-01-09T10:39:48.680Z,27.57
2023-01-09T10:42:23.679Z,25.20
2023-01-09T10:44:58.913Z,29.37
2023-01-09T10:47:32.164Z,26.77
2023-01-09T10:50:01.337Z,24.20
2023-01-09T10:52:37.240Z,27.63
2023-01-09T10:55:15.468Z,27.87
2023-01-09T10:57:46.095Z,26.67
2023-01-09T11:00:23.538Z,23.10
2023-01-09T11:02:53.387Z,25.50
2023-01-09T11:05:24.566Z,23.40
2023-01-09T11:07:58.449Z,22.83
2023-01-09T11:10:48.349Z,22.57
2023-01-09T11:13:21.938Z,27.23
2023-01-09T11:16:09.617Z,24.70
2023-01-09T11:18:42.074Z,23.83
2023-01-09T11:21:16.345Z,26.90
2023-01-09T11:23:45.433Z,22.67
2023-01-09T11:26:25.150Z,21.50
2023-01-09T11:29:13.977Z,23.10
2023-01-09T11:31:51.723Z,21.30
2023-01-09T11:34:22.960Z,24.90
2023-01-09T11:36:54.251Z,23.60
2023-01-09T11:39:26.739Z,26.07
2023-01-09T11:41:57.222Z,21.67
2023-01-09T11:44:27.026Z,24.70
2023-01-09T11:46:57.399Z,24.57
2023-01-09T11:49:28.405Z,29.20
2023-01-09T11:52:16.501Z,27.27
2023-01-09T11:54:50.623Z,21.27
2023-01-09T11:57:19.726Z,24.90
2023-01-09T11:59:48.506Z,23.93
2023-01-09T12:02:51.457Z,21.20
2023-01-09T12:05:33.214Z,23.03
2023-01-09T12:08:22.563Z,23.17
2023-01-09T12:11:20.042Z,19.50
2023-01-09T12:14:14.459Z,20.90
2023-01-09T12:16:51.238Z,19.17
2023-01-09T12:19:43.789Z,18.77
2023-01-09T12:22:24.086Z,18.10
2023-01-09T12:25:19.352Z,17.20
2023-01-09T12:28:02.265Z,13.90
2023-01-09T12:30:46.450Z,14.57
2023-01-09T12:33:32.153Z,15.20
2023-01-09T12:36:14.839Z,12.47
2023-01-09T12:38:50.060Z,13.83
2023-01-09T12:41:43.025Z,11.60
2023-01-09T12:44:38.017Z,11.87
2023-01-09T12:47:46.205Z,12.53
2023-01-09T12:50:47.205Z,10.27
2023-01-09T12:53:23.613Z,10.90
2023-01-09T12:55:58.723Z,9.90
2023-01-09T12:58:37.747Z,10.73
2023-01-09T13:01:10.214Z,10.20
2023-01-09T13:03:43.534Z,10.37
2023-01-09T13:06:18.047Z,11.80
2023-01-09T13:08:53.320Z,10.13
2023-01-09T13:11:28.072Z,10.47
2023-01-09T13:14:00.185Z,10.40
2023-01-09T13:16:34.868Z,10.20
2023-01-09T13:19:13.010Z,10.20
2023-01-09T13:21:42.798Z,10.10
2023-01-09T13:24:19.507Z,9.40
2023-01-09T13:26:52.577Z,14.70
2023-01-09T13:29:25.044Z,10.73
2023-01-09T13:32:21.165Z,11.43
2023-01-09T13:34:54.110Z,8.40
2023-01-09T13:37:26.443Z,8.83
2023-01-09T13:40:01.728Z,9.17
2023-01-09T13:42:50.827Z,9.37
2023-01-09T13:45:25.896Z,8.23
2023-01-09T13:48:19.439Z,9.73
2023-01-09T13:50:51.864Z,9.20
2023-01-09T13:53:48.878Z,9.33
2023-01-09T13:56:20.176Z,8.10
2023-01-09T13:59:09.545Z,8.33
2023-01-09T14:01:44.129Z,10.43
2023-01-09T14:04:39.812Z,8.23
2023-01-09T14:07:24.292Z,8.83
2023-01-09T14:09:58.678Z,9.50
2023-01-09T14:12:30.884Z,9.70
2023-01-09T14:15:03.790Z,9.37
2023-01-09T14:17:36.014Z,9.43
2023-01-09T14:20:08.324Z,8.87
2023-01-09T14:22:50.377Z,8.30
2023-01-09T14:25:28.318Z,9.50
2023-01-09T14:28:21.467Z,7.80
2023-01-09T14:31:11.170Z,10.10
2023-01-09T14:33:40.195Z,10.60
2023-01-09T14:36:19.700Z,10.97
2023-01-09T14:38:50.623Z,10.90
2023-01-09T14:41:44.567Z,9.10
2023-01-09T14:44:28.932Z,9.73
2023-01-09T14:47:01.710Z,10.00
2023-01-09T14:49:37.545Z,10.70
2023-01-09T14:52:15.693Z,9.53
2023-01-09T14:54:45.942Z,10.30
2023-01-09T14:57:31.572Z,9.60
2023-01-09T15:00:04.379Z,9.43
2023-01-09T15:02:36.816Z,10.93
2023-01-09T15:05:09.670Z,10.03
2023-01-09T15:07:44.803Z,8.07
2023-01-09T15:10:19.027Z,7.97
2023-01-09T15:12:49.455Z,8.40
2023-01-09T15:15:22.196Z,8.63
2023-01-09T15:17:56.601Z,9.23
2023-01-09T15:20:28.529Z,8.73
2023-01-09T15:22:58.659Z,9.40
2023-01-09T15:25:44.606Z,9.27
2023-01-09T15:28:29.270Z,9.50
2023-01-09T15:31:04.713Z,9.33
2023-01-09T15:33:34.528Z,8.07
2023-01-09T15:36:09.645Z,9.53
2023-01-09T15:38:40.335Z,9.90
2023-01-09T15:41:13.269Z,9.20
2023-01-09T15:43:44.415Z,10.80
2023-01-09T15:46:18.025Z,10.43
2023-01-09T15:48:46.897Z,10.60
2023-01-09T15:51:18.718Z,9.73
2023-01-09T15:53:50.444Z,11.93
2023-01-09T15:56:24.267Z,10.93
2023-01-09T15:58:57.424Z,11.80
2023-01-09T16:01:36.981Z,11.20
2023-01-09T16:04:09.946Z,10.43
2023-01-09T16:06:46.348Z,11.03
2023-01-09T16:09:18.599Z,13.80
2023-01-09T16:11:53.669Z,12.13
2023-01-09T16:14:31.804Z,11.67
2023-01-09T16:17:06.045Z,13.20
2023-01-09T16:19:48.207Z,10.93
2023-01-09T16:22:27.408Z,12.90
2023-01-09T16:24:58.143Z,12.07
2023-01-09T16:27:37.104Z,10.67
2023-01-09T16:30:08.248Z,12.53
2023-01-09T16:32:51.646Z,14.90
2023-01-09T16:35:22.931Z,12.53
2023-01-09T16:37:52.137Z,12.70
2023-01-09T16:40:32.368Z,11.60
2023-01-09T16:43:01.939Z,10.00
2023-01-09T16:45:34.592Z,11.00
2023-01-09T16:48:12.629Z,12.97
2023-01-09T16:50:42.849Z,12.80
2023-01-09T16:53:16.928Z,12.70
2023-01-09T16:55:46.536Z,15.67
2023-01-09T16:58:19.805Z,14.67
2023-01-09T17:00:49.606Z,15.80
2023-01-09T17:03:20.917Z,13.80
2023-01-09T17:05:53.283Z,14.30
2023-01-09T17:08:25.467Z,10.57
2023-01-09T17:10:56.630Z,11.37
2023-01-09T17:13:27.064Z,14.20
2023-01-09T17:15:57.501Z,11.70
2023-01-09T17:18:31.220Z,11.30
2023-01-09T17:21:00.511Z,11.83
2023-01-09T17:23:30.948Z,11.50
2023-01-09T17:26:18.728Z,12.87
2023-01-09T17:28:51.885Z,10.80
2023-01-09T17:31:20.968Z,11.50
2023-01-09T17:33:52.000Z,13.30
2023-01-09T17:36:27.992Z,12.97
2023-01-09T17:38:57.397Z,15.13
2023-01-09T17:41:28.789Z,10.30
2023-01-09T17:43:58.309Z,10.00
2023-01-09T17:46:31.237Z,10.07
2023-01-09T17:49:02.134Z,10.17
2023-01-09T17:51:32.047Z,12.33
2023-01-09T17:54:01.854Z,9.47
2023-01-09T17:56:37.722Z,10.63
2023-01-09T17:59:06.883Z,13.40
2023-01-09T18:01:36.474Z,11.40
2023-01-09T18:04:08.399Z,11.43
2023-01-09T18:06:38.095Z,10.93
2023-01-09T18:09:11.701Z,10.63
2023-01-09T18:11:42.908Z,10.93
2023-01-09T18:14:13.655Z,12.10
2023-01-09T18:16:45.631Z,9.47
2023-01-09T18:19:17.010Z,18.67
2023-01-09T18:21:47.437Z,9.13
2023-01-09T18:24:17.195Z,9.30
2023-01-09T18:26:47.028Z,9.27
2023-01-09T18:29:17.337Z,9.80
2023-01-09T18:31:47.747Z,11.33
2023-01-09T18:34:19.892Z,10.37
2023-01-09T18:36:49.432Z,10.00
2023-01-09T18:39:21.119Z,9.97
2023-01-09T18:41:51.979Z,11.93
2023-01-09T18:44:22.743Z,14.00
2023-01-09T18:46:51.795Z,13.07
2023-01-09T18:49:24.100Z,13.13
2023-01-09T18:51:53.875Z,12.80
2023-01-09T18:54:25.019Z,12.13
2023-01-09T18:56:56.250Z,11.77
2023-01-09T18:59:27.855Z,24.27
2023-01-09T19:02:00.267Z,22.13
2023-01-09T19:04:36.153Z,22.17
2023-01-09T19:07:08.253Z,29.00
2023-01-09T19:09:38.130Z,19.10
2023-01-09T19:12:09.618Z,40.77
2023-01-09T19:14:40.016Z,40.17
2023-01-09T19:17:10.187Z,21.43
2023-01-09T19:19:43.257Z,18.87
2023-01-09T19:22:15.566Z,18.30
2023-01-09T19:24:45.620Z,16.17
2023-01-09T19:27:18.438Z,15.43
2023-01-09T19:29:52.082Z,17.40
2023-01-09T19:32:23.524Z,14.40
2023-01-09T19:34:54.892Z,13.70
2023-01-09T19:37:26.435Z,17.47
2023-01-09T19:39:57.514Z,16.73
2023-01-09T19:42:28.565Z,16.90
2023-01-09T19:44:58.864Z,18.00
2023-01-09T19:47:28.984Z,20.87
2023-01-09T19:50:04.971Z,17.23
2023-01-09T19:52:37.989Z,17.40
2023-01-09T19:55:12.169Z,17.10
2023-01-09T19:57:42.375Z,13.80
2023-01-09T20:00:15.979Z,16.30
2023-01-09T20:02:47.360Z,14.97
2023-01-09T20:05:22.193Z,21.83
2023-01-09T20:07:57.010Z,18.93
2023-01-09T20:10:26.630Z,19.93
2023-01-09T20:12:56.950Z,13.63
2023-01-09T20:15:28.208Z,14.33
2023-01-09T20:17:57.713Z,15.73
2023-01-09T20:20:30.376Z,15.57
2023-01-09T20:23:02.035Z,14.73
2023-01-09T20:25:32.514Z,16.47
2023-01-09T20:28:04.139Z,16.23
2023-01-09T20:30:34.984Z,16.00
2023-01-09T20:33:04.455Z,18.33
2023-01-09T20:35:35.334Z,17.80
2023-01-09T20:38:05.585Z,18.83
2023-01-09T20:40:37.787Z,20.00
2023-01-09T20:43:09.752Z,21.20
2023-01-09T20:45:39.636Z,20.90
2023-01-09T20:48:12.590Z,20.10
2023-01-09T20:50:43.693Z,20.33
2023-01-09T20:53:13.087Z,21.10
2023-01-09T20:55:42.895Z,27.63
2023-01-09T20:58:12.861Z,24.10
2023-01-09T21:00:43.430Z,20.10
2023-01-09T21:03:16.921Z,20.87
2023-01-09T21:05:48.282Z,20.33
2023-01-09T21:08:20.639Z,22.60
2023-01-09T21:10:50.217Z,19.10
2023-01-09T21:13:20.115Z,24.37
2023-01-09T21:15:49.463Z,26.33
2023-01-09T21:18:18.437Z,26.90
2023-01-09T21:20:50.243Z,24.77
2023-01-09T21:23:19.565Z,24.77
2023-01-09T21:25:50.039Z,22.97
2023-01-09T21:28:20.439Z,24.03
2023-01-09T21:30:50.496Z,24.53
2023-01-09T21:33:22.755Z,23.37
2023-01-09T21:35:58.394Z,24.97
2023-01-09T21:38:28.835Z,21.27
2023-01-09T21:40:57.872Z,22.47
2023-01-09T21:43:45.702Z,20.57
2023-01-09T21:46:33.039Z,21.50
2023-01-09T21:49:04.523Z,23.23
2023-01-09T21:51:39.009Z,19.37
2023-01-09T21:54:07.812Z,18.83
2023-01-09T21:56:36.711Z,18.97
2023-01-09T21:59:05.764Z,18.83
2023-01-09T22:01:34.604Z,20.27
2023-01-09T22:04:03.599Z,19.97
2023-01-09T22:06:34.234Z,20.13
2023-01-09T22:09:03.010Z,19.30
2023-01-09T22:11:31.792Z,22.23
2023-01-09T22:14:01.314Z,20.27
2023-01-09T22:16:30.278Z,20.67
2023-01-09T22:18:59.176Z,19.90
2023-01-09T22:21:28.045Z,20.50
2023-01-09T22:24:01.733Z,26.33
2023-01-09T22:26:31.253Z,22.07
2023-01-09T22:29:00.118Z,20.93
2023-01-09T22:31:29.975Z,21.13
2023-01-09T22:33:59.886Z,20.90
2023-01-09T22:36:30.829Z,20.40
2023-01-09T22:39:02.384Z,20.33
2023-01-09T22:41:31.730Z,21.40
2023-01-09T22:44:00.691Z,21.63
2023-01-09T22:46:30.406Z,20.73
2023-01-09T22:48:59.301Z,19.50
2023-01-09T22:51:28.352Z,19.47
2023-01-09T22:53:57.181Z,21.27
2023-01-09T22:56:27.686Z,21.80
2023-01-09T22:58:58.635Z,21.73
2023-01-09T23:01:27.529Z,21.00
2023-01-09T23:03:56.481Z,21.30
2023-01-09T23:06:26.046Z,20.67
2023-01-09T23:08:55.009Z,20.53
2023-01-09T23:11:44.006Z,17.47
2023-01-09T23:14:13.391Z,19.47
2023-01-09T23:16:42.866Z,17.77
2023-01-09T23:19:15.884Z,27.63
2023-01-09T23:21:45.864Z,21.13
2023-01-09T23:24:16.452Z,30.40
2023-01-09T23:26:47.933Z,20.90
2023-01-09T23:29:16.792Z,20.83
2023-01-09T23:31:46.033Z,20.40
2023-01-09T23:34:17.207Z,23.47
2023-01-09T23:36:47.804Z,20.50
2023-01-09T23:39:16.773Z,15.80
2023-01-09T23:42:04.509Z,18.03
2023-01-09T23:44:33.369Z,20.63
2023-01-09T23:47:02.174Z,19.80
2023-01-09T23:49:31.065Z,20.70
2023-01-09T23:52:01.790Z,19.90
2023-01-09T23:54:30.658Z,19.40
2023-01-09T23:57:00.854Z,18.27
2023-01-09T23:59:29.721Z,19.60
